Portada
METAR-TAF:

METAR-TAF

Aeroports :

Williamson County Regional Airport

Marion, Illinois, Estats Units d'Amèrica

latitud: 37-45-01N, longitud: 089-00-04W, altitud: 144 m

Observació

L'informe es va fer fa 39 minuts, a les 14:45 UTC
Vent 9 kt del Nord-Est
Temperatura 4°C
Humitat 87%
Pressió 1021 hPa
Visibilitat: 24.1 km
Cel cobert a una alçada de 1300 ft

METAR: KMWA 221445Z 04009KT 15SM OVC013 04/02 A3016

Hora: 09:24 (15:24 UTC)


TAF: manca

Observacions i pronòstics meteorològics de més de 4000 aeroports (METAR i TAF).

Les estacions disponibles són els punts grocs i vermells al mapa.

Posi el ratolí al punt desitjat per veure el nom de l'estació.

Feu clic per veure les observacions i els pronòstics meteorològics.

Per canviar el mapa: feu clic els botons verds amb una creu de color negre per apropar; al botó verd amb un guió per allunyar la imatge; o en les fletxes verdes per a mapes adjacents.


METAR-TAF: